sensor_id;sensor_type;location;lat;lon;timestamp;pressure;altitude;pressure_sealevel;temperature;humidity
50065;BME280;35951;47.848;-122.338;2022-07-06T00:00:11;101066.98;;;18.18;100.00
50065;BME280;35951;47.848;-122.338;2022-07-06T00:02:39;101067.02;;;18.15;100.00
50065;BME280;35951;47.848;-122.338;2022-07-06T00:05:07;101064.38;;;18.15;100.00
50065;BME280;35951;47.848;-122.338;2022-07-06T00:07:35;101063.51;;;18.16;100.00
50065;BME280;35951;47.848;-122.338;2022-07-06T00:10:03;101058.69;;;18.17;100.00
50065;BME280;35951;47.848;-122.338;2022-07-06T00:12:31;101057.30;;;18.20;100.00
50065;BME280;35951;47.848;-122.338;2022-07-06T00:14:59;101061.69;;;18.21;100.00
50065;BME280;35951;47.848;-122.338;2022-07-06T00:17:26;101056.42;;;18.21;100.00
50065;BME280;35951;47.848;-122.338;2022-07-06T00:19:54;101058.58;;;18.23;100.00
50065;BME280;35951;47.848;-122.338;2022-07-06T00:22:21;101048.50;;;18.25;100.00
50065;BME280;35951;47.848;-122.338;2022-07-06T00:24:49;101045.42;;;18.25;100.00
50065;BME280;35951;47.848;-122.338;2022-07-06T00:27:17;101048.92;;;18.24;100.00
50065;BME280;35951;47.848;-122.338;2022-07-06T00:29:44;101052.02;;;18.23;100.00
50065;BME280;35951;47.848;-122.338;2022-07-06T00:32:12;101041.93;;;18.25;100.00
50065;BME280;35951;47.848;-122.338;2022-07-06T00:34:39;101035.77;;;18.26;100.00
50065;BME280;35951;47.848;-122.338;2022-07-06T00:37:07;101025.23;;;18.26;100.00
50065;BME280;35951;47.848;-122.338;2022-07-06T00:39:35;101017.44;;;18.21;100.00
50065;BME280;35951;47.848;-122.338;2022-07-06T00:42:03;101014.36;;;18.21;100.00
50065;BME280;35951;47.848;-122.338;2022-07-06T00:44:30;101021.79;;;18.22;100.00
50065;BME280;35951;47.848;-122.338;2022-07-06T00:46:59;101021.31;;;18.24;100.00
50065;BME280;35951;47.848;-122.338;2022-07-06T00:49:27;101008.59;;;18.27;100.00
50065;BME280;35951;47.848;-122.338;2022-07-06T00:52:13;101011.23;;;18.25;100.00
50065;BME280;35951;47.848;-122.338;2022-07-06T00:54:41;101014.74;;;18.24;100.00
50065;BME280;35951;47.848;-122.338;2022-07-06T00:57:10;101016.89;;;18.26;100.00
50065;BME280;35951;47.848;-122.338;2022-07-06T00:59:37;101009.42;;;18.29;100.00
50065;BME280;35951;47.848;-122.338;2022-07-06T01:02:05;100998.83;;;18.32;100.00
50065;BME280;35951;47.848;-122.338;2022-07-06T01:04:33;100996.19;;;18.33;100.00
50065;BME280;35951;47.848;-122.338;2022-07-06T01:07:01;100993.06;;;18.37;100.00
50065;BME280;35951;47.848;-122.338;2022-07-06T01:09:29;100995.66;;;18.40;100.00
50065;BME280;35951;47.848;-122.338;2022-07-06T01:11:56;100996.47;;;18.44;100.00
50065;BME280;35951;47.848;-122.338;2022-07-06T01:14:24;100992.05;;;18.46;100.00
50065;BME280;35951;47.848;-122.338;2022-07-06T01:16:52;100991.57;;;18.48;100.00
50065;BME280;35951;47.848;-122.338;2022-07-06T01:19:20;100990.26;;;18.48;100.00
50065;BME280;35951;47.848;-122.338;2022-07-06T01:21:48;100993.73;;;18.50;100.00
50065;BME280;35951;47.848;-122.338;2022-07-06T01:24:15;100995.94;;;18.50;100.00
50065;BME280;35951;47.848;-122.338;2022-07-06T01:26:43;101003.35;;;18.52;100.00
50065;BME280;35951;47.848;-122.338;2022-07-06T01:29:11;101002.87;;;18.54;100.00
50065;BME280;35951;47.848;-122.338;2022-07-06T01:31:47;101001.08;;;18.56;100.00
50065;BME280;35951;47.848;-122.338;2022-07-06T01:34:16;100994.94;;;18.57;100.00
50065;BME280;35951;47.848;-122.338;2022-07-06T01:36:45;100998.89;;;18.57;100.00
50065;BME280;35951;47.848;-122.338;2022-07-06T01:39:13;101000.15;;;18.59;100.00
50065;BME280;35951;47.848;-122.338;2022-07-06T01:41:40;101005.01;;;18.58;100.00
50065;BME280;35951;47.848;-122.338;2022-07-06T01:44:10;101007.19;;;18.58;100.00
50065;BME280;35951;47.848;-122.338;2022-07-06T01:46:37;101011.97;;;18.60;100.00
50065;BME280;35951;47.848;-122.338;2022-07-06T01:49:05;101009.31;;;18.62;100.00
50065;BME280;35951;47.848;-122.338;2022-07-06T01:51:33;101001.44;;;18.60;100.00
50065;BME280;35951;47.848;-122.338;2022-07-06T01:54:01;101001.44;;;18.60;100.00
50065;BME280;35951;47.848;-122.338;2022-07-06T01:56:29;101008.91;;;18.61;100.00
50065;BME280;35951;47.848;-122.338;2022-07-06T01:58:58;101008.02;;;18.60;100.00
50065;BME280;35951;47.848;-122.338;2022-07-06T02:01:26;101011.09;;;18.61;100.00
50065;BME280;35951;47.848;-122.338;2022-07-06T02:03:54;101014.13;;;18.63;100.00
50065;BME280;35951;47.848;-122.338;2022-07-06T02:06:22;101021.59;;;18.63;100.00
50065;BME280;35951;47.848;-122.338;2022-07-06T02:08:50;101029.05;;;18.62;100.00
50065;BME280;35951;47.848;-122.338;2022-07-06T02:11:20;101030.83;;;18.61;100.00
50065;BME280;35951;47.848;-122.338;2022-07-06T02:13:47;101032.16;;;18.60;100.00
50065;BME280;35951;47.848;-122.338;2022-07-06T02:16:17;101028.66;;;18.59;100.00
50065;BME280;35951;47.848;-122.338;2022-07-06T02:18:44;101038.73;;;18.60;100.00
50065;BME280;35951;47.848;-122.338;2022-07-06T02:21:12;101041.84;;;18.58;100.00
50065;BME280;35951;47.848;-122.338;2022-07-06T02:23:40;101038.77;;;18.57;100.00
50065;BME280;35951;47.848;-122.338;2022-07-06T02:26:07;101049.32;;;18.55;100.00
50065;BME280;35951;47.848;-122.338;2022-07-06T02:28:35;101049.77;;;18.55;100.00
50065;BME280;35951;47.848;-122.338;2022-07-06T02:31:02;101049.86;;;18.50;100.00
50065;BME280;35951;47.848;-122.338;2022-07-06T02:33:30;101046.81;;;18.48;100.00
50065;BME280;35951;47.848;-122.338;2022-07-06T02:35:57;101049.05;;;18.47;100.00
50065;BME280;35951;47.848;-122.338;2022-07-06T02:38:26;101062.22;;;18.45;100.00
50065;BME280;35951;47.848;-122.338;2022-07-06T02:40:53;101064.00;;;18.43;100.00
50065;BME280;35951;47.848;-122.338;2022-07-06T02:43:21;101068.83;;;18.42;100.00
50065;BME280;35951;47.848;-122.338;2022-07-06T02:45:49;101069.30;;;18.40;100.00
50065;BME280;35951;47.848;-122.338;2022-07-06T02:48:17;101071.95;;;18.38;100.00
50065;BME280;35951;47.848;-122.338;2022-07-06T02:50:47;101066.69;;;18.38;100.00
50065;BME280;35951;47.848;-122.338;2022-07-06T02:53:18;101067.98;;;18.40;100.00
50065;BME280;35951;47.848;-122.338;2022-07-06T02:55:47;101060.11;;;18.38;100.00
50065;BME280;35951;47.848;-122.338;2022-07-06T02:58:14;101056.17;;;18.38;100.00
50065;BME280;35951;47.848;-122.338;2022-07-06T03:00:42;101062.36;;;18.36;100.00
50065;BME280;35951;47.848;-122.338;2022-07-06T03:03:10;101069.83;;;18.33;100.00
50065;BME280;35951;47.848;-122.338;2022-07-06T03:05:38;101070.30;;;18.31;100.00
50065;BME280;35951;47.848;-122.338;2022-07-06T03:08:05;101077.38;;;18.26;100.00
50065;BME280;35951;47.848;-122.338;2022-07-06T03:10:33;101088.00;;;18.20;100.00
50065;BME280;35951;47.848;-122.338;2022-07-06T03:13:01;101082.77;;;18.17;100.00
50065;BME280;35951;47.848;-122.338;2022-07-06T03:15:28;101085.03;;;18.13;100.00
50065;BME280;35951;47.848;-122.338;2022-07-06T03:17:56;101080.27;;;18.08;100.00
50065;BME280;35951;47.848;-122.338;2022-07-06T03:20:24;101077.25;;;18.05;100.00
50065;BME280;35951;47.848;-122.338;2022-07-06T03:22:51;101078.61;;;18.00;100.00
50065;BME280;35951;47.848;-122.338;2022-07-06T03:25:19;101068.64;;;17.94;100.00
50065;BME280;35951;47.848;-122.338;2022-07-06T03:27:46;101070.84;;;17.91;100.00
50065;BME280;35951;47.848;-122.338;2022-07-06T03:30:14;101068.67;;;17.91;100.00
50065;BME280;35951;47.848;-122.338;2022-07-06T03:32:41;101062.98;;;17.90;100.00
50065;BME280;35951;47.848;-122.338;2022-07-06T03:35:09;101058.20;;;17.86;100.00
50065;BME280;35951;47.848;-122.338;2022-07-06T03:37:36;101064.37;;;17.85;100.00
50065;BME280;35951;47.848;-122.338;2022-07-06T03:40:05;101064.80;;;17.83;100.00
50065;BME280;35951;47.848;-122.338;2022-07-06T03:42:33;101064.38;;;17.80;100.00
50065;BME280;35951;47.848;-122.338;2022-07-06T03:45:00;101070.55;;;17.79;100.00
50065;BME280;35951;47.848;-122.338;2022-07-06T03:47:28;101064.00;;;17.76;100.00
50065;BME280;35951;47.848;-122.338;2022-07-06T03:49:57;101062.25;;;17.75;100.00
50065;BME280;35951;47.848;-122.338;2022-07-06T03:52:24;101065.78;;;17.74;100.00
50065;BME280;35951;47.848;-122.338;2022-07-06T03:54:52;101057.48;;;17.72;100.00
50065;BME280;35951;47.848;-122.338;2022-07-06T03:57:19;101053.11;;;17.72;100.00
50065;BME280;35951;47.848;-122.338;2022-07-06T03:59:48;101049.64;;;17.70;100.00
50065;BME280;35951;47.848;-122.338;2022-07-06T04:02:15;101043.50;;;17.68;100.00
50065;BME280;35951;47.848;-122.338;2022-07-06T04:04:44;101044.44;;;17.64;100.00
50065;BME280;35951;47.848;-122.338;2022-07-06T04:07:11;101045.34;;;17.63;100.00
50065;BME280;35951;47.848;-122.338;2022-07-06T04:09:39;101052.80;;;17.60;100.00
50065;BME280;35951;47.848;-122.338;2022-07-06T04:12:07;101053.28;;;17.57;100.00
50065;BME280;35951;47.848;-122.338;2022-07-06T04:14:35;101056.38;;;17.55;100.00
50065;BME280;35951;47.848;-122.338;2022-07-06T04:17:03;101052.50;;;17.50;100.00
50065;BME280;35951;47.848;-122.338;2022-07-06T04:19:32;101053.41;;;17.46;100.00
50065;BME280;35951;47.848;-122.338;2022-07-06T04:21:59;101052.17;;;17.40;100.00
50065;BME280;35951;47.848;-122.338;2022-07-06T04:24:27;101056.12;;;17.38;100.00
50065;BME280;35951;47.848;-122.338;2022-07-06T04:26:54;101064.91;;;17.37;100.00
50065;BME280;35951;47.848;-122.338;2022-07-06T04:29:22;101072.35;;;17.35;100.00
50065;BME280;35951;47.848;-122.338;2022-07-06T04:31:49;101077.67;;;17.30;100.00
50065;BME280;35951;47.848;-122.338;2022-07-06T04:34:17;101085.11;;;17.27;100.00
50065;BME280;35951;47.848;-122.338;2022-07-06T04:36:44;101075.92;;;17.27;100.00
50065;BME280;35951;47.848;-122.338;2022-07-06T04:39:12;101075.06;;;17.27;100.00
50065;BME280;35951;47.848;-122.338;2022-07-06T04:41:39;101072.89;;;17.26;100.00
50065;BME280;35951;47.848;-122.338;2022-07-06T04:44:07;101070.27;;;17.26;100.00
50065;BME280;35951;47.848;-122.338;2022-07-06T04:46:34;101075.91;;;17.29;100.00
50065;BME280;35951;47.848;-122.338;2022-07-06T04:49:02;101078.08;;;17.31;100.00
50065;BME280;35951;47.848;-122.338;2022-07-06T04:51:30;101068.02;;;17.32;100.00
50065;BME280;35951;47.848;-122.338;2022-07-06T04:53:57;101076.75;;;17.33;100.00
50065;BME280;35951;47.848;-122.338;2022-07-06T04:56:25;101066.27;;;17.31;100.00
50065;BME280;35951;47.848;-122.338;2022-07-06T04:58:52;101061.91;;;17.30;100.00
50065;BME280;35951;47.848;-122.338;2022-07-06T05:01:20;101056.21;;;17.31;100.00
50065;BME280;35951;47.848;-122.338;2022-07-06T05:03:48;101045.25;;;17.31;100.00
50065;BME280;35951;47.848;-122.338;2022-07-06T05:06:15;101034.74;;;17.33;100.00
50065;BME280;35951;47.848;-122.338;2022-07-06T05:08:44;101025.98;;;17.34;100.00
50065;BME280;35951;47.848;-122.338;2022-07-06T05:11:11;101020.28;;;17.34;100.00
50065;BME280;35951;47.848;-122.338;2022-07-06T05:13:39;101016.34;;;17.34;100.00
50065;BME280;35951;47.848;-122.338;2022-07-06T05:16:07;101030.79;;;17.34;100.00
50065;BME280;35951;47.848;-122.338;2022-07-06T05:18:35;101046.09;;;17.35;100.00
50065;BME280;35951;47.848;-122.338;2022-07-06T05:21:03;101059.23;;;17.33;100.00
50065;BME280;35951;47.848;-122.338;2022-07-06T05:23:32;101069.32;;;17.34;100.00
50065;BME280;35951;47.848;-122.338;2022-07-06T05:25:59;101075.43;;;17.34;100.00
50065;BME280;35951;47.848;-122.338;2022-07-06T05:28:27;101087.25;;;17.34;100.00
50065;BME280;35951;47.848;-122.338;2022-07-06T05:30:55;101092.07;;;17.32;100.00
50065;BME280;35951;47.848;-122.338;2022-07-06T05:33:22;101097.78;;;17.30;100.00
50065;BME280;35951;47.848;-122.338;2022-07-06T05:35:50;101100.02;;;17.27;100.00
50065;BME280;35951;47.848;-122.338;2022-07-06T05:38:17;101094.33;;;17.24;100.00
50065;BME280;35951;47.848;-122.338;2022-07-06T05:40:45;101092.16;;;17.22;100.00
50065;BME280;35951;47.848;-122.338;2022-07-06T05:43:13;101106.65;;;17.21;100.00
50065;BME280;35951;47.848;-122.338;2022-07-06T05:45:40;101104.91;;;17.18;100.00
50065;BME280;35951;47.848;-122.338;2022-07-06T05:48:08;101097.03;;;17.17;100.00
50065;BME280;35951;47.848;-122.338;2022-07-06T05:50:53;101092.24;;;17.15;100.00
50065;BME280;35951;47.848;-122.338;2022-07-06T05:53:21;101094.89;;;17.12;100.00
50065;BME280;35951;47.848;-122.338;2022-07-06T05:55:48;101087.05;;;17.10;100.00
50065;BME280;35951;47.848;-122.338;2022-07-06T05:58:16;101091.00;;;17.08;100.00
50065;BME280;35951;47.848;-122.338;2022-07-06T06:00:43;101083.59;;;17.06;100.00
50065;BME280;35951;47.848;-122.338;2022-07-06T06:03:12;101079.61;;;17.08;100.00
50065;BME280;35951;47.848;-122.338;2022-07-06T06:05:39;101083.12;;;17.08;100.00
50065;BME280;35951;47.848;-122.338;2022-07-06T06:08:07;101084.84;;;17.10;100.00
50065;BME280;35951;47.848;-122.338;2022-07-06T06:10:35;101074.34;;;17.10;100.00
50065;BME280;35951;47.848;-122.338;2022-07-06T06:13:03;101070.86;;;17.09;100.00
50065;BME280;35951;47.848;-122.338;2022-07-06T06:18:13;101061.22;;;17.10;100.00
50065;BME280;35951;47.848;-122.338;2022-07-06T06:20:42;101052.94;;;17.08;100.00
50065;BME280;35951;47.848;-122.338;2022-07-06T06:23:09;101056.42;;;17.09;100.00
50065;BME280;35951;47.848;-122.338;2022-07-06T06:25:38;101068.69;;;17.08;100.00
50065;BME280;35951;47.848;-122.338;2022-07-06T06:28:06;101083.98;;;17.09;100.00
50065;BME280;35951;47.848;-122.338;2022-07-06T06:30:35;101090.99;;;17.10;100.00
50065;BME280;35951;47.848;-122.338;2022-07-06T06:33:17;101094.48;;;17.11;100.00
50065;BME280;35951;47.848;-122.338;2022-07-06T06:35:52;101097.11;;;17.11;100.00
50065;BME280;35951;47.848;-122.338;2022-07-06T06:38:21;101106.30;;;17.09;100.00
50065;BME280;35951;47.848;-122.338;2022-07-06T06:40:51;101109.80;;;17.08;100.00
50065;BME280;35951;47.848;-122.338;2022-07-06T06:43:20;101118.13;;;17.07;100.00
50065;BME280;35951;47.848;-122.338;2022-07-06T06:45:48;101119.42;;;17.09;100.00
50065;BME280;35951;47.848;-122.338;2022-07-06T06:48:15;101111.99;;;17.10;100.00
50065;BME280;35951;47.848;-122.338;2022-07-06T06:50:45;101105.84;;;17.10;100.00
50065;BME280;35951;47.848;-122.338;2022-07-06T06:53:13;101100.59;;;17.10;100.00
50065;BME280;35951;47.848;-122.338;2022-07-06T06:55:41;101089.70;;;17.07;100.00
50065;BME280;35951;47.848;-122.338;2022-07-06T06:58:08;101073.12;;;17.00;100.00
50065;BME280;35951;47.848;-122.338;2022-07-06T07:00:36;101064.45;;;16.94;100.00
50065;BME280;35951;47.848;-122.338;2022-07-06T07:03:03;101065.77;;;16.94;100.00
50065;BME280;35951;47.848;-122.338;2022-07-06T07:05:31;101064.45;;;16.94;100.00
50065;BME280;35951;47.848;-122.338;2022-07-06T07:07:58;101063.56;;;16.93;100.00
50065;BME280;35951;47.848;-122.338;2022-07-06T07:10:26;101056.12;;;16.96;100.00
50065;BME280;35951;47.848;-122.338;2022-07-06T07:12:54;101051.73;;;16.96;100.00
50065;BME280;35951;47.848;-122.338;2022-07-06T07:15:21;101062.69;;;16.94;100.00
50065;BME280;35951;47.848;-122.338;2022-07-06T07:17:49;101074.05;;;16.95;100.00
50065;BME280;35951;47.848;-122.338;2022-07-06T07:20:18;101074.05;;;16.96;100.00
50065;BME280;35951;47.848;-122.338;2022-07-06T07:22:45;101088.88;;;16.99;100.00
50065;BME280;35951;47.848;-122.338;2022-07-06T07:25:13;101100.69;;;16.99;100.00
50065;BME280;35951;47.848;-122.338;2022-07-06T07:27:40;101102.89;;;17.01;100.00
50065;BME280;35951;47.848;-122.338;2022-07-06T07:30:09;101096.28;;;17.02;100.00
50065;BME280;35951;47.848;-122.338;2022-07-06T07:32:36;101094.97;;;17.02;100.00
50065;BME280;35951;47.848;-122.338;2022-07-06T07:35:06;101097.64;;;17.01;100.00
50065;BME280;35951;47.848;-122.338;2022-07-06T07:37:33;101092.42;;;16.96;100.00
50065;BME280;35951;47.848;-122.338;2022-07-06T07:40:01;101091.55;;;16.96;100.00
50065;BME280;35951;47.848;-122.338;2022-07-06T07:42:30;101092.42;;;16.95;100.00
50065;BME280;35951;47.848;-122.338;2022-07-06T07:44:57;101093.28;;;16.95;100.00
50065;BME280;35951;47.848;-122.338;2022-07-06T07:47:25;101089.34;;;16.97;100.00
50065;BME280;35951;47.848;-122.338;2022-07-06T07:49:52;101091.09;;;16.98;100.00
50065;BME280;35951;47.848;-122.338;2022-07-06T07:52:20;101089.33;;;16.98;100.00
50065;BME280;35951;47.848;-122.338;2022-07-06T07:54:48;101093.71;;;16.99;100.00
50065;BME280;35951;47.848;-122.338;2022-07-06T07:57:15;101102.90;;;16.99;100.00
50065;BME280;35951;47.848;-122.338;2022-07-06T07:59:43;101105.52;;;16.99;100.00
50065;BME280;35951;47.848;-122.338;2022-07-06T08:02:10;101095.49;;;16.96;100.00
50065;BME280;35951;47.848;-122.338;2022-07-06T08:04:38;101094.20;;;16.91;100.00
50065;BME280;35951;47.848;-122.338;2022-07-06T08:07:05;101087.23;;;16.88;100.00
50065;BME280;35951;47.848;-122.338;2022-07-06T08:09:33;101084.16;;;16.89;100.00
50065;BME280;35951;47.848;-122.338;2022-07-06T08:12:00;101088.09;;;16.89;100.00
50065;BME280;35951;47.848;-122.338;2022-07-06T08:14:28;101084.62;;;16.88;100.00
50065;BME280;35951;47.848;-122.338;2022-07-06T08:16:56;101078.47;;;16.88;100.00
50065;BME280;35951;47.848;-122.338;2022-07-06T08:19:23;101074.59;;;16.85;100.00
50065;BME280;35951;47.848;-122.338;2022-07-06T08:21:51;101084.19;;;16.84;100.00
50065;BME280;35951;47.848;-122.338;2022-07-06T08:24:18;101089.88;;;16.87;100.00
50065;BME280;35951;47.848;-122.338;2022-07-06T08:26:46;101087.23;;;16.90;100.00
50065;BME280;35951;47.848;-122.338;2022-07-06T08:29:14;101078.91;;;16.91;100.00
50065;BME280;35951;47.848;-122.338;2022-07-06T08:31:41;101086.34;;;16.88;100.00
50065;BME280;35951;47.848;-122.338;2022-07-06T08:34:09;101085.03;;;16.88;100.00
50065;BME280;35951;47.848;-122.338;2022-07-06T08:36:36;101088.09;;;16.89;100.00
50065;BME280;35951;47.848;-122.338;2022-07-06T08:39:04;101088.09;;;16.89;100.00
50065;BME280;35951;47.848;-122.338;2022-07-06T08:41:31;101093.36;;;16.87;100.00
50065;BME280;35951;47.848;-122.338;2022-07-06T08:43:59;101089.01;;;16.86;100.00
50065;BME280;35951;47.848;-122.338;2022-07-06T08:46:28;101099.05;;;16.87;100.00
50065;BME280;35951;47.848;-122.338;2022-07-06T08:48:56;101100.37;;;16.87;100.00
50065;BME280;35951;47.848;-122.338;2022-07-06T08:51:24;101099.47;;;16.88;100.00
50065;BME280;35951;47.848;-122.338;2022-07-06T08:53:53;101096.44;;;16.85;100.00
50065;BME280;35951;47.848;-122.338;2022-07-06T08:56:22;101093.80;;;16.82;100.00
50065;BME280;35951;47.848;-122.338;2022-07-06T08:58:50;101095.56;;;16.82;100.00
50065;BME280;35951;47.848;-122.338;2022-07-06T09:01:19;101095.11;;;16.82;100.00
50065;BME280;35951;47.848;-122.338;2022-07-06T09:03:50;101089.86;;;16.82;100.00
50065;BME280;35951;47.848;-122.338;2022-07-06T09:06:21;101088.59;;;16.81;100.00
50065;BME280;35951;47.848;-122.338;2022-07-06T09:08:54;101089.91;;;16.81;100.00
50065;BME280;35951;47.848;-122.338;2022-07-06T09:11:23;101091.21;;;16.81;100.00
50065;BME280;35951;47.848;-122.338;2022-07-06T09:13:52;101096.47;;;16.79;100.00
50065;BME280;35951;47.848;-122.338;2022-07-06T09:16:26;101095.58;;;16.79;100.00
50065;BME280;35951;47.848;-122.338;2022-07-06T09:18:54;101094.70;;;16.80;100.00
50065;BME280;35951;47.848;-122.338;2022-07-06T09:21:30;101095.58;;;16.79;100.00
50065;BME280;35951;47.848;-122.338;2022-07-06T09:24:01;101088.16;;;16.77;100.00
50065;BME280;35951;47.848;-122.338;2022-07-06T09:26:29;101088.17;;;16.75;100.00
50065;BME280;35951;47.848;-122.338;2022-07-06T09:28:57;101084.23;;;16.75;100.00
50065;BME280;35951;47.848;-122.338;2022-07-06T09:31:26;101082.52;;;16.73;100.00
50065;BME280;35951;47.848;-122.338;2022-07-06T09:33:56;101088.21;;;16.72;100.00
50065;BME280;35951;47.848;-122.338;2022-07-06T09:36:51;101089.09;;;16.69;100.00
50065;BME280;35951;47.848;-122.338;2022-07-06T09:39:24;101089.14;;;16.65;100.00
50065;BME280;35951;47.848;-122.338;2022-07-06T09:41:58;101086.12;;;16.61;100.00
50065;BME280;35951;47.848;-122.338;2022-07-06T09:44:30;101086.98;;;16.58;100.00
50065;BME280;35951;47.848;-122.338;2022-07-06T09:47:01;101095.31;;;16.56;100.00
50065;BME280;35951;47.848;-122.338;2022-07-06T09:49:30;101102.33;;;16.53;100.00
50065;BME280;35951;47.848;-122.338;2022-07-06T09:51:59;101106.73;;;16.49;100.00
50065;BME280;35951;47.848;-122.338;2022-07-06T09:54:29;101101.49;;;16.46;100.00
50065;BME280;35951;47.848;-122.338;2022-07-06T09:56:57;101106.73;;;16.44;100.00
50065;BME280;35951;47.848;-122.338;2022-07-06T09:59:26;101096.69;;;16.48;100.00
50065;BME280;35951;47.848;-122.338;2022-07-06T10:01:58;101096.69;;;16.48;100.00
50065;BME280;35951;47.848;-122.338;2022-07-06T10:04:27;101107.17;;;16.50;100.00
50065;BME280;35951;47.848;-122.338;2022-07-06T10:06:55;101112.83;;;16.51;100.00
50065;BME280;35951;47.848;-122.338;2022-07-06T10:09:25;101110.20;;;16.53;100.00
50065;BME280;35951;47.848;-122.338;2022-07-06T10:11:55;101111.95;;;16.54;100.00
50065;BME280;35951;47.848;-122.338;2022-07-06T10:14:29;101106.27;;;16.53;100.00
50065;BME280;35951;47.848;-122.338;2022-07-06T10:16:58;101104.50;;;16.55;100.00
50065;BME280;35951;47.848;-122.338;2022-07-06T10:19:27;101109.73;;;16.56;100.00
50065;BME280;35951;47.848;-122.338;2022-07-06T10:22:00;101107.98;;;16.57;100.00
50065;BME280;35951;47.848;-122.338;2022-07-06T10:24:30;101114.98;;;16.56;100.00
50065;BME280;35951;47.848;-122.338;2022-07-06T10:26:59;101116.70;;;16.59;100.00
50065;BME280;35951;47.848;-122.338;2022-07-06T10:29:28;101116.28;;;16.59;100.00
50065;BME280;35951;47.848;-122.338;2022-07-06T10:31:59;101115.39;;;16.59;100.00
50065;BME280;35951;47.848;-122.338;2022-07-06T10:34:28;101113.67;;;16.59;100.00
50065;BME280;35951;47.848;-122.338;2022-07-06T10:36:55;101110.19;;;16.56;100.00
50065;BME280;35951;47.848;-122.338;2022-07-06T10:39:38;101117.62;;;16.53;100.00
50065;BME280;35951;47.848;-122.338;2022-07-06T10:42:50;101104.97;;;16.49;100.00
50065;BME280;35951;47.848;-122.338;2022-07-06T10:50:48;101108.09;;;16.43;100.00
50065;BME280;35951;47.848;-122.338;2022-07-06T10:53:27;101106.33;;;16.45;100.00
50065;BME280;35951;47.848;-122.338;2022-07-06T10:55:57;101107.64;;;16.45;100.00
50065;BME280;35951;47.848;-122.338;2022-07-06T11:01:12;101096.25;;;16.44;100.00
50065;BME280;35951;47.848;-122.338;2022-07-06T11:04:45;101092.77;;;16.45;100.00
50065;BME280;35951;47.848;-122.338;2022-07-06T11:06:27;101087.97;;;16.45;100.00
50065;BME280;35951;47.848;-122.338;2022-07-06T11:09:00;101082.27;;;16.45;100.00
50065;BME280;35951;47.848;-122.338;2022-07-06T11:11:38;101091.00;;;16.46;100.00
50065;BME280;35951;47.848;-122.338;2022-07-06T11:14:13;101091.45;;;16.45;100.00
50065;BME280;35951;47.848;-122.338;2022-07-06T11:19:23;101091.00;;;16.47;100.00
50065;BME280;35951;47.848;-122.338;2022-07-06T11:24:33;101080.95;;;16.48;100.00
50065;BME280;35951;47.848;-122.338;2022-07-06T11:27:02;101076.12;;;16.49;100.00
50065;BME280;35951;47.848;-122.338;2022-07-06T11:29:30;101081.80;;;16.50;100.00
50065;BME280;35951;47.848;-122.338;2022-07-06T11:31:59;101080.91;;;16.51;100.00
50065;BME280;35951;47.848;-122.338;2022-07-06T11:34:30;101081.36;;;16.51;100.00
50065;BME280;35951;47.848;-122.338;2022-07-06T11:37:03;101082.67;;;16.49;100.00
50065;BME280;35951;47.848;-122.338;2022-07-06T11:39:35;101081.82;;;16.46;100.00
50065;BME280;35951;47.848;-122.338;2022-07-06T11:42:06;101084.45;;;16.44;100.00
50065;BME280;35951;47.848;-122.338;2022-07-06T11:44:35;101086.20;;;16.45;100.00
50065;BME280;35951;47.848;-122.338;2022-07-06T11:47:04;101084.03;;;16.46;100.00
50065;BME280;35951;47.848;-122.338;2022-07-06T11:49:33;101080.96;;;16.45;100.00
50065;BME280;35951;47.848;-122.338;2022-07-06T11:52:06;101091.00;;;16.44;100.00
50065;BME280;35951;47.848;-122.338;2022-07-06T11:54:37;101089.69;;;16.46;100.00
50065;BME280;35951;47.848;-122.338;2022-07-06T11:57:10;101086.20;;;16.48;100.00
50065;BME280;35951;47.848;-122.338;2022-07-06T11:59:39;101096.68;;;16.50;100.00
50065;BME280;35951;47.848;-122.338;2022-07-06T12:02:14;101092.30;;;16.50;100.00
50065;BME280;35951;47.848;-122.338;2022-07-06T12:04:40;101093.16;;;16.49;100.00
50065;BME280;35951;47.848;-122.338;2022-07-06T12:07:11;101093.17;;;16.48;100.00
50065;BME280;35951;47.848;-122.338;2022-07-06T12:09:43;101089.68;;;16.49;100.00
50065;BME280;35951;47.848;-122.338;2022-07-06T12:12:14;101093.62;;;16.47;100.00
50065;BME280;35951;47.848;-122.338;2022-07-06T12:14:44;101095.79;;;16.48;100.00
50065;BME280;35951;47.848;-122.338;2022-07-06T12:17:12;101095.78;;;16.49;100.00
50065;BME280;35951;47.848;-122.338;2022-07-06T12:19:41;101097.55;;;16.49;100.00
50065;BME280;35951;47.848;-122.338;2022-07-06T12:22:09;101094.48;;;16.49;100.00
50065;BME280;35951;47.848;-122.338;2022-07-06T12:24:37;101095.79;;;16.48;100.00
50065;BME280;35951;47.848;-122.338;2022-07-06T12:27:13;101096.70;;;16.44;100.00
50065;BME280;35951;47.848;-122.338;2022-07-06T12:29:42;101095.85;;;16.39;100.00
50065;BME280;35951;47.848;-122.338;2022-07-06T12:32:21;101100.24;;;16.35;100.00
50065;BME280;35951;47.848;-122.338;2022-07-06T12:35:06;101103.32;;;16.31;100.00